Terminal Aerodrome Forecast
Issued by NWS

Home | Current Version | Previous Version | Text Only | Print | Product List | Glossary On
Versions: 1 2 3 4 5 6 7 8 9 10 11 12 13 14 15 16
000
FTUS41 KPHI 242320
TAFPNE
TAF
KPNE 242320Z 2500/2524 07012KT P6SM VCSH OVC050
      TEMPO 2501/2503 6SM -SHRA BR SCT025 OVC040
     FM250300 07012KT P6SM VCSH BKN025 OVC035
     FM250600 06012KT 6SM -SHRA BR BKN008 OVC012
     FM250800 06012G20KT 5SM -SHRA OVC007
     FM251200 07014G24KT 2SM RA OVC004
     FM252300 05012KT 4SM -SHRA OVC005=

USA.gov is the U.S. government's official web portal to all federal, state and local government web resources and services.